createdAt,value
2018-02-24T00:01:36.988Z,44.94
2018-02-24T00:04:09.522Z,44.57
2018-02-24T00:06:42.070Z,44.83
2018-02-24T00:09:14.592Z,44.87
2018-02-24T00:11:47.089Z,45.15
2018-02-24T00:14:19.608Z,45.33
2018-02-24T00:16:52.100Z,45.22
2018-02-24T00:19:24.619Z,44.92
2018-02-24T00:21:57.112Z,44.95
2018-02-24T00:24:29.661Z,44.96
2018-02-24T00:27:02.171Z,44.93
2018-02-24T00:29:34.703Z,45.20
2018-02-24T00:32:07.193Z,45.46
2018-02-24T00:34:39.704Z,45.81
2018-02-24T00:37:12.205Z,45.57
2018-02-24T00:39:44.743Z,45.59
2018-02-24T00:42:17.263Z,45.96
2018-02-24T00:44:49.788Z,45.44
2018-02-24T00:47:22.290Z,45.43
2018-02-24T00:49:54.816Z,45.42
2018-02-24T00:52:27.336Z,45.76
2018-02-24T00:54:59.844Z,45.94
2018-02-24T00:57:32.340Z,45.90
2018-02-24T01:00:04.871Z,46.16
2018-02-24T01:02:37.374Z,46.21
2018-02-24T01:05:09.933Z,46.26
2018-02-24T01:07:42.437Z,46.30
2018-02-24T01:10:14.965Z,46.32
2018-02-24T01:12:47.464Z,46.37
2018-02-24T01:15:20.036Z,46.94
2018-02-24T01:17:52.534Z,46.72
2018-02-24T01:20:25.085Z,46.77
2018-02-24T01:22:57.624Z,46.48
2018-02-24T01:25:30.155Z,46.78
2018-02-24T01:28:02.715Z,48.54
2018-02-24T01:30:35.221Z,48.39
2018-02-24T01:33:07.754Z,47.35
2018-02-24T01:35:40.249Z,47.29
2018-02-24T01:38:12.761Z,47.02
2018-02-24T01:40:45.268Z,46.71
2018-02-24T01:43:17.790Z,46.55
2018-02-24T01:45:50.297Z,46.29
2018-02-24T01:48:22.808Z,46.54
2018-02-24T01:50:55.321Z,46.81
2018-02-24T01:53:27.919Z,46.98
2018-02-24T01:56:00.444Z,46.83
2018-02-24T01:58:33.013Z,47.00
2018-02-24T02:01:05.502Z,47.03
2018-02-24T02:03:38.123Z,47.02
2018-02-24T02:06:10.655Z,46.76
2018-02-24T02:08:43.216Z,46.64
2018-02-24T02:11:15.714Z,47.13
2018-02-24T02:13:48.244Z,46.97
2018-02-24T02:16:20.743Z,46.74
2018-02-24T02:18:53.256Z,47.23
2018-02-24T02:21:25.748Z,47.14
2018-02-24T02:23:58.275Z,46.98
2018-02-24T02:26:30.770Z,47.17
2018-02-24T02:29:03.281Z,47.14
2018-02-24T02:31:35.799Z,47.13
2018-02-24T02:34:08.330Z,47.30
2018-02-24T02:36:40.842Z,47.50
2018-02-24T02:39:13.374Z,47.79
2018-02-24T02:41:45.906Z,47.81
2018-02-24T02:44:18.443Z,47.77
2018-02-24T02:46:50.942Z,47.78
2018-02-24T02:49:23.483Z,47.61
2018-02-24T02:51:55.984Z,47.71
2018-02-24T02:54:28.517Z,47.86
2018-02-24T02:57:01.019Z,48.03
2018-02-24T02:59:33.550Z,47.89
2018-02-24T03:02:06.060Z,47.94
2018-02-24T03:04:38.596Z,48.32
2018-02-24T03:07:11.098Z,48.38
2018-02-24T03:09:43.616Z,48.60
2018-02-24T03:12:16.123Z,48.42
2018-02-24T03:14:48.646Z,48.47
2018-02-24T03:17:21.160Z,48.49
2018-02-24T03:19:53.682Z,48.72
2018-02-24T03:22:26.189Z,48.72
2018-02-24T03:24:58.711Z,48.65
2018-02-24T03:27:31.277Z,48.61
2018-02-24T03:30:03.783Z,48.40
2018-02-24T03:32:36.279Z,48.35
2018-02-24T03:35:08.810Z,48.53
2018-02-24T03:37:41.310Z,48.47
2018-02-24T03:40:13.833Z,48.56
2018-02-24T03:42:46.337Z,48.40
2018-02-24T03:45:18.854Z,48.38
2018-02-24T03:47:51.347Z,48.47
2018-02-24T03:50:23.870Z,48.42
2018-02-24T03:52:56.371Z,48.32
2018-02-24T03:55:28.904Z,48.39
2018-02-24T03:58:01.397Z,48.37
2018-02-24T04:00:33.940Z,48.55
2018-02-24T04:03:06.478Z,48.34
2018-02-24T04:05:38.994Z,48.16
2018-02-24T04:08:11.482Z,48.02
2018-02-24T04:10:44.009Z,47.89
2018-02-24T04:13:16.517Z,48.09
2018-02-24T04:15:49.052Z,48.62
2018-02-24T04:18:21.548Z,48.39
2018-02-24T04:20:54.072Z,48.22
2018-02-24T04:23:26.573Z,48.14
2018-02-24T04:25:59.093Z,48.27
2018-02-24T04:28:31.585Z,48.20
2018-02-24T04:31:04.122Z,47.96
2018-02-24T04:33:36.615Z,47.98
2018-02-24T04:36:09.137Z,47.80
2018-02-24T04:38:41.632Z,47.85
2018-02-24T04:41:14.153Z,47.63
2018-02-24T04:43:46.660Z,47.60
2018-02-24T04:46:19.165Z,47.98
2018-02-24T04:48:51.688Z,47.82
2018-02-24T04:51:24.216Z,47.57
2018-02-24T04:53:56.717Z,47.40
2018-02-24T04:56:29.240Z,47.34
2018-02-24T04:59:01.739Z,47.55
2018-02-24T05:01:34.273Z,47.93
2018-02-24T05:04:06.788Z,47.80
2018-02-24T05:06:39.320Z,48.07
2018-02-24T05:09:11.903Z,47.75
2018-02-24T05:11:44.414Z,48.09
2018-02-24T05:14:16.941Z,47.96
2018-02-24T05:16:49.434Z,47.78
2018-02-24T05:19:21.944Z,48.01
2018-02-24T05:21:54.431Z,47.47
2018-02-24T05:24:26.945Z,47.81
2018-02-24T05:26:59.433Z,47.99
2018-02-24T05:29:31.946Z,47.80
2018-02-24T05:32:04.458Z,47.67
2018-02-24T05:34:36.965Z,47.65
2018-02-24T05:37:09.465Z,47.71
2018-02-24T05:39:43.037Z,47.44
2018-02-24T05:42:15.527Z,47.53
2018-02-24T05:44:48.041Z,47.24
2018-02-24T05:47:20.536Z,47.19
2018-02-24T05:49:53.059Z,47.37
2018-02-24T05:52:25.565Z,47.33
2018-02-24T05:54:58.082Z,47.23
2018-02-24T05:57:30.581Z,47.48
2018-02-24T06:00:03.113Z,47.50
2018-02-24T06:02:35.606Z,47.82
2018-02-24T06:05:08.127Z,47.84
2018-02-24T06:07:40.615Z,48.67
2018-02-24T06:10:13.142Z,48.66
2018-02-24T06:12:45.648Z,48.09
2018-02-24T06:15:18.171Z,47.78
2018-02-24T06:17:50.657Z,47.75
2018-02-24T06:20:23.198Z,47.94
2018-02-24T06:22:55.786Z,48.08
2018-02-24T06:25:28.315Z,48.31
2018-02-24T06:28:00.817Z,48.20
2018-02-24T06:30:33.331Z,48.12
2018-02-24T06:33:05.830Z,48.48
2018-02-24T06:35:38.346Z,48.28
2018-02-24T06:38:10.842Z,48.29
2018-02-24T06:40:43.359Z,48.42
2018-02-24T06:43:15.858Z,48.25
2018-02-24T06:45:48.370Z,48.64
2018-02-24T06:48:20.865Z,48.33
2018-02-24T06:50:53.394Z,48.30
2018-02-24T06:53:25.900Z,48.22
2018-02-24T06:55:58.434Z,48.37
2018-02-24T06:58:30.929Z,48.32
2018-02-24T07:01:03.444Z,48.16
2018-02-24T07:03:35.947Z,48.00
2018-02-24T07:06:08.471Z,48.25
2018-02-24T07:08:40.975Z,48.66
2018-02-24T07:11:13.499Z,48.45
2018-02-24T07:13:45.991Z,48.13
2018-02-24T07:16:18.532Z,48.23
2018-02-24T07:18:51.019Z,48.32
2018-02-24T07:21:23.541Z,48.26
2018-02-24T07:23:56.032Z,47.86
2018-02-24T07:26:28.543Z,47.78
2018-02-24T07:29:01.034Z,48.71
2018-02-24T07:31:33.558Z,48.53
2018-02-24T07:34:06.079Z,48.89
2018-02-24T07:36:38.606Z,49.24
2018-02-24T07:39:11.107Z,49.25
2018-02-24T07:41:43.634Z,49.23
2018-02-24T07:44:16.156Z,48.90
2018-02-24T07:46:48.686Z,48.82
2018-02-24T07:49:21.182Z,49.46
2018-02-24T07:51:53.720Z,49.02
2018-02-24T07:54:26.255Z,49.08
2018-02-24T07:56:58.771Z,49.73
2018-02-24T07:59:31.284Z,49.20
2018-02-24T08:02:03.781Z,49.36
2018-02-24T08:04:36.374Z,49.35
2018-02-24T08:07:08.928Z,50.16
2018-02-24T08:09:41.427Z,49.77
2018-02-24T08:12:13.949Z,50.11
2018-02-24T08:14:46.441Z,50.51
2018-02-24T08:17:19.214Z,49.98
2018-02-24T08:19:54.974Z,50.36
2018-02-24T08:22:28.558Z,50.53
2018-02-24T08:25:01.321Z,50.88
2018-02-24T08:27:33.827Z,50.90
2018-02-24T08:30:06.391Z,51.80
2018-02-24T08:32:38.922Z,51.33
2018-02-24T08:35:11.412Z,51.96
2018-02-24T08:37:44.038Z,51.90
2018-02-24T08:40:16.569Z,51.64
2018-02-24T08:42:49.072Z,51.41
2018-02-24T08:45:21.584Z,51.76
2018-02-24T08:47:54.088Z,52.36
2018-02-24T08:50:26.605Z,51.89
2018-02-24T08:52:59.088Z,51.67
2018-02-24T08:55:31.608Z,52.44
2018-02-24T08:58:04.110Z,53.01
2018-02-24T09:00:36.612Z,52.08
2018-02-24T09:03:09.112Z,51.78
2018-02-24T09:05:41.625Z,51.97
2018-02-24T09:08:14.242Z,50.81
2018-02-24T09:10:46.809Z,51.07
2018-02-24T09:13:19.304Z,51.29
2018-02-24T09:15:51.816Z,50.53
2018-02-24T09:18:24.305Z,50.08
2018-02-24T09:20:56.813Z,49.65
2018-02-24T09:23:29.304Z,49.76
2018-02-24T09:26:01.816Z,49.56
2018-02-24T09:28:34.316Z,50.09
2018-02-24T09:31:06.829Z,48.50
2018-02-24T09:33:39.311Z,47.34
2018-02-24T09:36:11.821Z,46.94
2018-02-24T09:38:44.371Z,46.17
2018-02-24T09:41:16.850Z,45.36
2018-02-24T09:43:49.341Z,45.99
2018-02-24T09:46:21.860Z,44.15
2018-02-24T09:48:54.353Z,43.13
2018-02-24T09:51:26.911Z,41.82
2018-02-24T09:53:59.397Z,41.57
2018-02-24T09:56:31.921Z,41.27
2018-02-24T09:59:04.423Z,39.68
2018-02-24T10:01:36.958Z,39.30
2018-02-24T10:04:09.470Z,38.89
2018-02-24T10:06:41.987Z,38.43
2018-02-24T10:09:14.490Z,38.80
2018-02-24T10:11:47.000Z,36.98
2018-02-24T10:14:19.489Z,37.93
2018-02-24T10:16:51.989Z,37.23
2018-02-24T10:19:24.488Z,36.86
2018-02-24T10:21:57.001Z,37.25
2018-02-24T10:24:29.491Z,38.61
2018-02-24T10:27:02.000Z,38.08
2018-02-24T10:29:34.499Z,37.79
2018-02-24T10:32:07.012Z,37.36
2018-02-24T10:34:39.513Z,38.23
2018-02-24T10:37:12.036Z,37.75
2018-02-24T10:39:44.533Z,38.39
2018-02-24T10:42:17.055Z,38.17
2018-02-24T10:44:49.566Z,38.42
2018-02-24T10:47:22.073Z,37.30
2018-02-24T10:49:54.553Z,36.22
2018-02-24T10:52:27.067Z,36.71
2018-02-24T10:54:59.562Z,35.97
2018-02-24T10:57:32.131Z,35.68
2018-02-24T11:00:05.146Z,36.84
2018-02-24T11:02:37.655Z,35.51
2018-02-24T11:05:10.139Z,35.55
2018-02-24T11:07:42.651Z,35.67
2018-02-24T11:10:15.175Z,35.63
2018-02-24T11:12:47.693Z,35.53
2018-02-24T11:15:20.199Z,35.11
2018-02-24T11:17:52.739Z,35.42
2018-02-24T11:20:25.234Z,36.59
2018-02-24T11:22:57.828Z,35.88
2018-02-24T11:25:30.338Z,34.96
2018-02-24T11:28:02.852Z,34.65
2018-02-24T11:30:35.355Z,35.35
2018-02-24T11:33:07.881Z,35.99
2018-02-24T11:35:40.371Z,35.94
2018-02-24T11:38:12.881Z,35.64
2018-02-24T11:40:45.383Z,35.90
2018-02-24T11:43:17.886Z,34.79
2018-02-24T11:45:50.379Z,34.98
2018-02-24T11:48:22.903Z,34.43
2018-02-24T11:50:55.396Z,33.79
2018-02-24T11:53:27.907Z,33.15
2018-02-24T11:56:00.418Z,32.39
2018-02-24T11:58:32.941Z,32.58
2018-02-24T12:01:05.435Z,32.88
2018-02-24T12:03:37.962Z,34.40
2018-02-24T12:06:10.457Z,32.96
2018-02-24T12:08:42.979Z,31.76
2018-02-24T12:11:15.478Z,32.01
2018-02-24T12:13:48.040Z,32.26
2018-02-24T12:16:20.550Z,33.32
2018-02-24T12:18:53.069Z,32.72
2018-02-24T12:21:25.569Z,32.60
2018-02-24T12:23:58.097Z,33.10
2018-02-24T12:26:30.589Z,32.50
2018-02-24T12:29:03.128Z,32.49
2018-02-24T12:31:35.621Z,31.75
2018-02-24T12:34:08.135Z,32.54
2018-02-24T12:36:40.643Z,31.76
2018-02-24T12:39:13.166Z,32.27
2018-02-24T12:41:45.655Z,30.51
2018-02-24T12:44:18.181Z,32.05
2018-02-24T12:46:50.677Z,30.96
2018-02-24T12:49:23.191Z,31.03
2018-02-24T12:51:55.680Z,32.14
2018-02-24T12:54:28.199Z,30.61
2018-02-24T12:57:00.685Z,30.71
2018-02-24T12:59:33.224Z,30.52
2018-02-24T13:02:05.730Z,31.40
2018-02-24T13:04:38.242Z,30.01
2018-02-24T13:07:10.782Z,30.76
2018-02-24T13:09:43.301Z,31.16
2018-02-24T13:12:15.792Z,30.95
2018-02-24T13:14:48.314Z,30.92
2018-02-24T13:17:20.831Z,32.66
2018-02-24T13:19:53.344Z,33.48
2018-02-24T13:22:25.859Z,33.52
2018-02-24T13:24:58.363Z,32.63
2018-02-24T13:27:30.888Z,32.63
2018-02-24T13:30:03.413Z,32.43
2018-02-24T13:32:35.988Z,32.88
2018-02-24T13:35:08.506Z,32.37
2018-02-24T13:37:41.024Z,33.03
2018-02-24T13:40:13.516Z,32.04
2018-02-24T13:42:46.034Z,33.18
2018-02-24T13:45:18.521Z,32.48
2018-02-24T13:47:51.045Z,33.11
2018-02-24T13:50:23.537Z,34.07
2018-02-24T13:52:56.045Z,33.13
2018-02-24T13:55:28.548Z,32.83
2018-02-24T13:58:01.062Z,32.82
2018-02-24T14:00:33.566Z,32.54
2018-02-24T14:03:06.150Z,32.62
2018-02-24T14:05:38.602Z,32.86
2018-02-24T14:08:11.111Z,32.70
2018-02-24T14:10:43.610Z,32.16
2018-02-24T14:13:16.118Z,32.05
2018-02-24T14:15:48.663Z,32.06
2018-02-24T14:18:21.161Z,31.69
2018-02-24T14:20:53.650Z,32.79
2018-02-24T14:23:26.259Z,31.72
2018-02-24T14:25:58.749Z,31.97
2018-02-24T14:28:31.273Z,31.76
2018-02-24T14:31:03.775Z,31.61
2018-02-24T14:33:36.285Z,31.83
2018-02-24T14:36:08.781Z,31.53
2018-02-24T14:38:41.299Z,32.37
2018-02-24T14:41:13.790Z,32.24
2018-02-24T14:43:46.293Z,32.15
2018-02-24T14:46:18.811Z,32.66
2018-02-24T14:48:51.345Z,32.46
2018-02-24T14:51:23.837Z,31.47
2018-02-24T14:53:56.341Z,31.83
2018-02-24T14:56:28.827Z,31.85
2018-02-24T14:59:01.344Z,31.59
2018-02-24T15:01:33.862Z,31.91
2018-02-24T15:04:06.388Z,31.94
2018-02-24T15:06:38.977Z,31.71
2018-02-24T15:09:11.469Z,32.24
2018-02-24T15:11:43.954Z,32.11
2018-02-24T15:14:16.463Z,32.27
2018-02-24T15:16:48.954Z,32.73
2018-02-24T15:19:21.487Z,32.93
2018-02-24T15:21:53.985Z,32.50
2018-02-24T15:24:26.497Z,32.81
2018-02-24T15:26:58.995Z,31.28
2018-02-24T15:29:31.521Z,31.35
2018-02-24T15:32:04.004Z,31.29
2018-02-24T15:34:36.523Z,31.61
2018-02-24T15:37:09.017Z,32.35
2018-02-24T15:39:41.524Z,32.32
2018-02-24T15:42:14.010Z,31.66
2018-02-24T15:44:46.538Z,32.52
2018-02-24T15:47:19.057Z,32.35
2018-02-24T15:52:30.417Z,32.00
2018-02-24T15:55:02.920Z,31.56
2018-02-24T15:57:35.411Z,31.16
2018-02-24T16:00:07.924Z,31.75
2018-02-24T16:02:41.280Z,31.69
2018-02-24T16:05:13.803Z,31.96
2018-02-24T16:07:46.355Z,33.72
2018-02-24T16:10:18.848Z,34.57
2018-02-24T16:12:51.345Z,34.59
2018-02-24T16:15:24.055Z,35.41
2018-02-24T16:17:56.621Z,35.75
2018-02-24T16:20:29.138Z,35.73
2018-02-24T16:23:01.644Z,35.40
2018-02-24T16:25:34.185Z,35.48
2018-02-24T16:28:06.681Z,35.58
2018-02-24T16:30:39.188Z,35.97
2018-02-24T16:33:11.709Z,35.82
2018-02-24T16:35:44.223Z,36.09
2018-02-24T16:38:16.718Z,36.18
2018-02-24T16:40:49.219Z,36.58
2018-02-24T16:43:21.708Z,36.48
2018-02-24T16:45:54.240Z,36.44
2018-02-24T16:48:26.731Z,36.74
2018-02-24T16:50:59.249Z,36.62
2018-02-24T16:53:31.782Z,37.60
2018-02-24T16:56:04.276Z,37.29
2018-02-24T16:58:36.788Z,37.66
2018-02-24T17:01:09.287Z,37.93
2018-02-24T17:03:41.820Z,37.41
2018-02-24T17:06:14.357Z,38.39
2018-02-24T17:08:46.876Z,37.38
2018-02-24T17:11:19.385Z,37.67
2018-02-24T17:13:51.891Z,36.98
2018-02-24T17:16:24.380Z,37.20
2018-02-24T17:18:56.887Z,37.68
2018-02-24T17:21:29.376Z,37.54
2018-02-24T17:24:01.893Z,37.85
2018-02-24T17:26:34.377Z,38.11
2018-02-24T17:29:06.891Z,38.11
2018-02-24T17:31:39.387Z,37.98
2018-02-24T17:34:11.931Z,38.51
2018-02-24T17:36:44.431Z,38.22
2018-02-24T17:39:16.939Z,38.40
2018-02-24T17:41:49.430Z,38.18
2018-02-24T17:44:21.953Z,38.84
2018-02-24T17:46:54.449Z,38.98
2018-02-24T17:49:26.992Z,39.25
2018-02-24T17:51:59.478Z,38.81
2018-02-24T17:54:32.000Z,38.69
2018-02-24T17:57:04.517Z,38.94
2018-02-24T17:59:37.039Z,38.91
2018-02-24T18:02:09.525Z,38.81
2018-02-24T18:04:42.056Z,38.98
2018-02-24T18:07:14.559Z,39.05
2018-02-24T18:09:47.073Z,40.00
2018-02-24T18:14:57.460Z,39.39
2018-02-24T18:17:29.948Z,39.37
2018-02-24T18:20:02.465Z,39.63
2018-02-24T18:22:34.960Z,39.25
2018-02-24T18:25:07.484Z,39.90
2018-02-24T18:27:39.983Z,39.60
2018-02-24T18:30:12.509Z,38.94
2018-02-24T18:32:44.995Z,38.59
2018-02-24T18:35:17.510Z,38.65
2018-02-24T18:37:50.024Z,38.82
2018-02-24T18:40:22.541Z,38.83
2018-02-24T18:42:55.072Z,39.12
2018-02-24T18:45:27.578Z,40.09
2018-02-24T18:48:00.073Z,39.52
2018-02-24T18:50:32.602Z,39.29
2018-02-24T18:53:05.099Z,39.26
2018-02-24T18:55:37.612Z,39.35
2018-02-24T18:58:10.112Z,38.94
2018-02-24T19:00:42.629Z,38.65
2018-02-24T19:03:15.132Z,39.43
2018-02-24T19:05:47.641Z,39.23
2018-02-24T19:08:20.146Z,38.48
2018-02-24T19:10:52.661Z,39.05
2018-02-24T19:13:25.146Z,38.98
2018-02-24T19:15:57.649Z,39.06
2018-02-24T19:18:30.149Z,38.84
2018-02-24T19:21:02.667Z,38.75
2018-02-24T19:23:35.166Z,38.82
2018-02-24T19:26:07.678Z,39.14
2018-02-24T19:28:40.165Z,39.16
2018-02-24T19:31:12.673Z,39.23
2018-02-24T19:33:45.167Z,39.05
2018-02-24T19:36:17.672Z,39.06
2018-02-24T19:38:50.165Z,38.99
2018-02-24T19:41:22.695Z,38.96
2018-02-24T19:43:55.199Z,38.98
2018-02-24T19:46:27.715Z,39.35
2018-02-24T19:49:00.204Z,39.03
2018-02-24T19:51:32.714Z,39.21
2018-02-24T19:54:05.213Z,38.98
2018-02-24T19:56:37.736Z,38.97
2018-02-24T19:59:10.345Z,38.60
2018-02-24T20:01:42.857Z,39.33
2018-02-24T20:04:15.368Z,38.91
2018-02-24T20:06:47.896Z,39.08
2018-02-24T20:09:20.391Z,39.49
2018-02-24T20:11:52.946Z,39.51
2018-02-24T20:14:25.447Z,41.59
2018-02-24T20:16:57.971Z,40.01
2018-02-24T20:19:30.485Z,40.36
2018-02-24T20:22:03.017Z,40.11
2018-02-24T20:24:35.505Z,39.38
2018-02-24T20:27:08.025Z,39.80
2018-02-24T20:29:40.517Z,40.14
2018-02-24T20:32:13.045Z,39.65
2018-02-24T20:34:45.538Z,39.68
2018-02-24T20:37:18.065Z,39.64
2018-02-24T20:39:50.582Z,40.04
2018-02-24T20:42:23.076Z,41.62
2018-02-24T20:44:55.598Z,41.08
2018-02-24T20:47:28.087Z,40.38
2018-02-24T20:50:00.599Z,41.46
2018-02-24T20:52:33.093Z,40.35
2018-02-24T20:55:05.615Z,40.91
2018-02-24T20:57:38.124Z,40.46
2018-02-24T21:00:10.647Z,40.27
2018-02-24T21:02:43.138Z,40.21
2018-02-24T21:05:15.647Z,40.41
2018-02-24T21:07:48.144Z,40.38
2018-02-24T21:10:20.656Z,40.40
2018-02-24T21:12:53.168Z,41.02
2018-02-24T21:15:25.673Z,40.45
2018-02-24T21:17:58.154Z,41.39
2018-02-24T21:20:30.672Z,41.03
2018-02-24T21:23:03.164Z,40.82
2018-02-24T21:25:35.684Z,40.82
2018-02-24T21:28:08.199Z,41.36
2018-02-24T21:30:40.725Z,40.51
2018-02-24T21:33:13.447Z,40.45
2018-02-24T21:35:46.416Z,40.69
2018-02-24T21:38:19.091Z,41.04
2018-02-24T21:40:51.916Z,40.64
2018-02-24T21:43:24.422Z,40.17
2018-02-24T21:45:57.325Z,39.86
2018-02-24T21:48:29.821Z,39.83
2018-02-24T21:51:02.345Z,40.32
2018-02-24T21:53:34.900Z,40.04
2018-02-24T21:56:07.478Z,40.39
2018-02-24T21:58:39.930Z,41.07
2018-02-24T22:01:12.455Z,40.52
2018-02-24T22:03:44.949Z,41.79
2018-02-24T22:06:17.482Z,40.73
2018-02-24T22:08:49.976Z,41.23
2018-02-24T22:11:22.493Z,41.53
2018-02-24T22:13:54.994Z,42.57
2018-02-24T22:16:27.983Z,41.60
2018-02-24T22:19:00.557Z,41.78
2018-02-24T22:21:33.525Z,41.45
2018-02-24T22:24:06.060Z,41.08
2018-02-24T22:26:38.672Z,40.89
2018-02-24T22:29:11.199Z,40.53
2018-02-24T22:31:44.144Z,42.20
2018-02-24T22:34:16.772Z,41.46
2018-02-24T22:36:49.295Z,41.00
2018-02-24T22:39:21.798Z,41.56
2018-02-24T22:41:55.869Z,41.55
2018-02-24T22:44:28.846Z,41.02
2018-02-24T22:47:01.559Z,40.62
2018-02-24T22:49:34.694Z,41.15
2018-02-24T22:52:07.294Z,40.88
2018-02-24T22:54:40.260Z,41.84
2018-02-24T22:57:12.828Z,41.53
2018-02-24T22:59:45.662Z,41.14
2018-02-24T23:02:18.243Z,40.61
2018-02-24T23:04:51.146Z,40.74
2018-02-24T23:07:23.700Z,40.65
2018-02-24T23:09:56.697Z,40.79
2018-02-24T23:12:29.640Z,40.64
2018-02-24T23:15:02.594Z,40.37
2018-02-24T23:17:35.690Z,40.20
2018-02-24T23:20:08.585Z,40.40
2018-02-24T23:22:41.261Z,40.18
2018-02-24T23:25:16.614Z,40.23
2018-02-24T23:27:49.501Z,40.17
2018-02-24T23:30:22.042Z,40.17
2018-02-24T23:32:54.609Z,39.98
2018-02-24T23:35:27.112Z,40.14
2018-02-24T23:37:59.641Z,40.48
2018-02-24T23:40:32.230Z,40.50
2018-02-24T23:43:04.860Z,40.80
2018-02-24T23:45:37.420Z,40.59
2018-02-24T23:48:10.022Z,40.30
2018-02-24T23:50:42.545Z,40.46
2018-02-24T23:53:15.068Z,40.76
2018-02-24T23:55:47.857Z,40.73
2018-02-24T23:58:20.628Z,40.61
